PWSweather.com
Personal Weather Stations
Station Observations
BLACKWELL
Blackwell, AlfretonGB DE55

BlackwellAlfretonGB DE55

Lat: 53.12076, Lon: -1.354978

Elevation: 410

Station Type: Vantage Pro

High Low Average
Temperature 43.0°F6.1°C 38.3°F3.5°C 40.9°F4.9°C
Dew Point 39.9°F4.4°C 35.4°F1.9°C 37.7°F3.2°C
Winds 4.0 mph 6.4 kmh Calm Calm 2.0 mph WSW3.2 kmh WSW
Wind Gusts 11.0 mph17.7 kmh 2.0 mph3.2 kmh 6.0 mph9.7 kmh
Humidity 91% 85% 88%
Pressure 29.70 in1005.8 mb 29.30 in992.2 mb -
Precipitation 0.06 in1.5 mm - -
Hour Temp Dew Point Humidity Winds Wind Gusts Pressure Precip Precip Rate Daily Precip Total
12:37 AM 40.3°F4.6°C 36.1°F2.3°C 85% 2.0 mph WSW3.2 kmh WSW 10.0 mph16.1 kmh 29.30 in992.2 mb 0.00 in0.0 mm 0.00 in0.0 mm 0.00 in0.0 mm
01:37 AM 38.3°F3.5°C 35.4°F1.9°C 89% Calm Calm 2.0 mph3.2 kmh 29.32 in992.9 mb 0.00 in0.0 mm 0.00 in0.0 mm 0.00 in0.0 mm
02:37 AM 39.2°F4.0°C 36.3°F2.4°C 89% 4.0 mph WSW6.4 kmh WSW 9.0 mph14.5 kmh 29.32 in992.9 mb 0.00 in0.0 mm 0.00 in0.0 mm 0.00 in0.0 mm
03:37 AM 38.8°F3.8°C 35.8°F2.1°C 89% 3.0 mph WSW4.8 kmh WSW 8.0 mph12.9 kmh 29.31 in992.6 mb 0.00 in0.0 mm 0.00 in0.0 mm 0.00 in0.0 mm
04:37 AM 39.0°F3.9°C 36.1°F2.3°C 89% 1.0 mph WSW1.6 kmh WSW 4.0 mph6.4 kmh 29.31 in992.6 mb 0.00 in0.0 mm 0.00 in0.0 mm 0.00 in0.0 mm
05:37 AM 40.6°F4.8°C 37.4°F3.0°C 88% 2.0 mph WSW3.2 kmh WSW 5.0 mph8.0 kmh 29.32 in992.9 mb 0.00 in0.0 mm 0.00 in0.0 mm 0.00 in0.0 mm
06:37 AM 41.5°F5.3°C 37.9°F3.3°C 87% 3.0 mph WSW4.8 kmh WSW 6.0 mph9.7 kmh 29.31 in992.6 mb 0.00 in0.0 mm 0.00 in0.0 mm 0.00 in0.0 mm
07:37 AM 40.3°F4.6°C 37.0°F2.8°C 88% 2.0 mph SW3.2 kmh SW 6.0 mph9.7 kmh 29.30 in992.2 mb 0.00 in0.0 mm 0.00 in0.0 mm 0.00 in0.0 mm
08:37 AM 38.8°F3.8°C 36.1°F2.3°C 90% Calm Calm 2.0 mph3.2 kmh 29.32 in992.9 mb 0.00 in0.0 mm 0.00 in0.0 mm 0.00 in0.0 mm
09:37 AM 38.3°F3.5°C 36.0°F2.2°C 91% Calm Calm 4.0 mph6.4 kmh 29.33 in993.2 mb 0.00 in0.0 mm 0.00 in0.0 mm 0.00 in0.0 mm
10:37 AM 40.3°F4.6°C 37.0°F2.8°C 88% 1.0 mph WSW1.6 kmh WSW 5.0 mph8.0 kmh 29.33 in993.2 mb 0.00 in0.0 mm 0.00 in0.0 mm 0.00 in0.0 mm
11:37 AM 40.5°F4.7°C 37.6°F3.1°C 89% Calm Calm 3.0 mph4.8 kmh 29.34 in993.6 mb 0.00 in0.0 mm 0.00 in0.0 mm 0.00 in0.0 mm
12:37 PM 40.8°F4.9°C 38.1°F3.4°C 90% Calm Calm 3.0 mph4.8 kmh 29.34 in993.6 mb 0.00 in0.0 mm 0.00 in0.0 mm 0.00 in0.0 mm
01:37 PM 42.4°F5.8°C 39.2°F4.0°C 88% 1.0 mph WSW1.6 kmh WSW 4.0 mph6.4 kmh 29.34 in993.6 mb 0.00 in0.0 mm 0.00 in0.0 mm 0.00 in0.0 mm
02:37 PM 42.6°F5.9°C 38.5°F3.6°C 85% 2.0 mph WSW3.2 kmh WSW 5.0 mph8.0 kmh 29.35 in993.9 mb 0.00 in0.0 mm 0.00 in0.0 mm 0.00 in0.0 mm
03:37 PM 42.1°F5.6°C 39.2°F4.0°C 90% 1.0 mph SW1.6 kmh SW 3.0 mph4.8 kmh 29.36 in994.2 mb 0.00 in0.0 mm 0.00 in0.0 mm 0.00 in0.0 mm
04:37 PM 42.4°F5.8°C 39.9°F4.4°C 91% 3.0 mph SW4.8 kmh SW 7.0 mph11.3 kmh 29.37 in994.6 mb 0.02 in0.5 mm 0.00 in0.0 mm 0.02 in0.5 mm
05:37 PM 42.1°F5.6°C 39.7°F4.3°C 91% 3.0 mph SW4.8 kmh SW 6.0 mph9.7 kmh 29.38 in994.9 mb 0.04 in1.0 mm 0.00 in0.0 mm 0.06 in1.5 mm
06:37 PM 43.0°F6.1°C 39.4°F4.1°C 87% 2.0 mph SW3.2 kmh SW 8.0 mph12.9 kmh 29.44 in997.0 mb 0.00 in0.0 mm 0.00 in0.0 mm 0.06 in1.5 mm
07:37 PM 42.8°F6.0°C 39.6°F4.2°C 88% 2.0 mph SW3.2 kmh SW 6.0 mph9.7 kmh 29.51 in999.3 mb 0.00 in0.0 mm 0.00 in0.0 mm 0.06 in1.5 mm
08:37 PM 42.4°F5.8°C 38.5°F3.6°C 86% 2.0 mph SW3.2 kmh SW 11.0 mph17.7 kmh 29.56 in1001.0 mb 0.00 in0.0 mm 0.00 in0.0 mm 0.06 in1.5 mm
09:37 PM 41.7°F5.4°C 37.9°F3.3°C 86% 1.0 mph SSW1.6 kmh SSW 8.0 mph12.9 kmh 29.60 in1002.4 mb 0.00 in0.0 mm 0.00 in0.0 mm 0.06 in1.5 mm
10:37 PM 42.1°F5.6°C 38.3°F3.5°C 86% 1.0 mph SW1.6 kmh SW 5.0 mph8.0 kmh 29.66 in1004.4 mb 0.00 in0.0 mm 0.00 in0.0 mm 0.06 in1.5 mm
11:37 PM 42.1°F5.6°C 38.5°F3.6°C 87% 2.0 mph SW3.2 kmh SW 6.0 mph9.7 kmh 29.70 in1005.8 mb 0.00 in0.0 mm 0.00 in0.0 mm 0.06 in1.5 mm